TimeEDT,TemperatureF,Dew PointF,Humidity,Sea Level PressureIn,VisibilityMPH,Wind Direction,Wind SpeedMPH,Gust SpeedMPH,PrecipitationIn,Events,Conditions,WindDirDegrees,DateUTC
12:52 AM,68.0,59.0,73,29.96,10.0,South,5.8,-,N/A,,Clear,180,2012-10-06 04:52:00
1:52 AM,68.0,60.1,76,29.96,10.0,South,5.8,-,N/A,,Clear,190,2012-10-06 05:52:00
2:52 AM,66.9,60.1,79,29.94,10.0,SSW,8.1,-,N/A,,Clear,200,2012-10-06 06:52:00
3:52 AM,66.9,60.1,79,29.93,10.0,South,6.9,-,N/A,,Clear,190,2012-10-06 07:52:00
4:52 AM,66.0,60.1,81,29.91,10.0,South,5.8,-,N/A,,Clear,180,2012-10-06 08:52:00
5:52 AM,66.0,59.0,78,29.92,10.0,SSW,4.6,-,N/A,,Clear,200,2012-10-06 09:52:00
6:04 AM,66.2,59.0,78,29.92,10.0,South,5.8,-,N/A,,Clear,180,2012-10-06 10:04:00
6:52 AM,66.0,59.0,78,29.91,10.0,South,5.8,-,N/A,,Clear,190,2012-10-06 10:52:00
7:52 AM,66.0,59.0,78,29.91,10.0,Variable,5.8,-,N/A,,Scattered Clouds,0,2012-10-06 11:52:00
8:52 AM,70.0,60.1,71,29.90,10.0,South,5.8,-,N/A,,Scattered Clouds,180,2012-10-06 12:52:00
9:52 AM,73.0,60.1,64,29.88,10.0,SSW,9.2,-,N/A,,Scattered Clouds,200,2012-10-06 13:52:00
10:52 AM,77.0,60.1,56,29.87,10.0,SSW,11.5,-,N/A,,Partly Cloudy,200,2012-10-06 14:52:00
11:52 AM,81.0,61.0,50,29.86,10.0,SSW,13.8,19.6,N/A,,Partly Cloudy,210,2012-10-06 15:52:00
12:52 PM,82.0,60.1,47,29.84,10.0,SSW,11.5,-,N/A,,Partly Cloudy,210,2012-10-06 16:52:00
1:52 PM,82.9,59.0,44,29.83,10.0,WSW,15.0,-,N/A,,Scattered Clouds,250,2012-10-06 17:52:00
2:52 PM,82.0,57.0,42,29.83,10.0,WSW,15.0,-,N/A,,Scattered Clouds,240,2012-10-06 18:52:00
3:52 PM,75.9,59.0,56,29.86,10.0,WNW,19.6,25.3,N/A,,Mostly Cloudy,300,2012-10-06 19:52:00
4:06 PM,73.4,59.0,61,29.86,10.0,NW,17.3,25.3,0.00,Rain,Light Rain,320,2012-10-06 20:06:00
4:52 PM,71.1,55.9,59,29.88,10.0,NW,20.7,27.6,0.00,,Mostly Cloudy,310,2012-10-06 20:52:00
5:52 PM,70.0,48.9,47,29.91,10.0,NW,18.4,-,N/A,,Mostly Cloudy,320,2012-10-06 21:52:00
6:52 PM,68.0,50.0,52,29.94,10.0,NNW,12.7,-,N/A,,Mostly Cloudy,330,2012-10-06 22:52:00
7:52 PM,64.9,45.0,48,29.96,10.0,NNW,16.1,-,N/A,,Mostly Cloudy,330,2012-10-06 23:52:00
8:52 PM,64.0,44.1,48,30.00,10.0,NW,15.0,-,N/A,,Overcast,320,2012-10-07 00:52:00
9:52 PM,62.1,39.9,44,30.03,10.0,NW,18.4,24.2,N/A,,Mostly Cloudy,320,2012-10-07 01:52:00
10:52 PM,61.0,41.0,48,30.03,10.0,NW,11.5,21.9,N/A,,Mostly Cloudy,320,2012-10-07 02:52:00
11:52 PM,60.1,42.1,51,30.04,10.0,NW,11.5,-,N/A,,Overcast,320,2012-10-07 03:52:00